createdAt,value
2022-12-31T00:01:25.268Z,7.65
2022-12-31T00:03:52.460Z,7.63
2022-12-31T00:06:25.570Z,7.59
2022-12-31T00:08:53.823Z,7.55
2022-12-31T00:11:21.181Z,7.52
2022-12-31T00:13:48.453Z,7.54
2022-12-31T00:16:18.829Z,7.54
2022-12-31T00:18:48.201Z,7.54
2022-12-31T00:21:15.203Z,7.48
2022-12-31T00:23:42.326Z,7.46
2022-12-31T00:26:16.911Z,7.48
2022-12-31T00:28:44.238Z,7.45
2022-12-31T00:31:40.049Z,7.43
2022-12-31T00:34:06.709Z,7.45
2022-12-31T00:36:35.853Z,7.42
2022-12-31T00:39:04.147Z,7.34
2022-12-31T00:41:31.522Z,7.37
2022-12-31T00:43:58.679Z,7.39
2022-12-31T00:46:25.626Z,7.39
2022-12-31T00:48:52.422Z,7.36
2022-12-31T00:51:21.700Z,7.37
2022-12-31T00:53:48.361Z,7.39
2022-12-31T00:56:17.455Z,7.37
2022-12-31T00:58:43.922Z,7.35
2022-12-31T01:01:20.739Z,7.32
2022-12-31T01:03:48.838Z,7.38
2022-12-31T01:06:16.263Z,7.42
2022-12-31T01:08:43.286Z,7.44
2022-12-31T01:11:24.371Z,7.42
2022-12-31T01:14:11.996Z,7.43
2022-12-31T01:16:44.703Z,7.41
2022-12-31T01:19:14.063Z,7.46
2022-12-31T01:21:42.430Z,7.47
2022-12-31T01:24:10.504Z,7.45
2022-12-31T01:26:37.737Z,7.47
2022-12-31T01:29:05.773Z,7.45
2022-12-31T01:31:34.056Z,7.41
2022-12-31T01:34:00.667Z,7.40
2022-12-31T01:36:29.641Z,7.44
2022-12-31T01:38:58.525Z,7.45
2022-12-31T01:41:28.807Z,7.45
2022-12-31T01:44:13.264Z,7.43
2022-12-31T01:46:49.499Z,7.37
2022-12-31T01:49:15.854Z,7.39
2022-12-31T01:51:45.302Z,7.33
2022-12-31T01:54:15.609Z,7.28
2022-12-31T01:56:43.181Z,7.35
2022-12-31T01:59:11.135Z,7.35
2022-12-31T02:01:38.910Z,7.38
2022-12-31T02:04:09.677Z,7.36
2022-12-31T02:06:44.381Z,7.36
2022-12-31T02:09:11.973Z,7.33
2022-12-31T02:11:38.594Z,7.32
2022-12-31T02:14:14.627Z,7.33
2022-12-31T02:17:15.037Z,7.37
2022-12-31T02:19:56.672Z,7.36
2022-12-31T02:22:29.082Z,7.30
2022-12-31T02:25:16.683Z,7.30
2022-12-31T02:28:08.889Z,7.37
2022-12-31T02:30:37.188Z,7.40
2022-12-31T02:33:03.571Z,7.44
2022-12-31T02:35:51.537Z,7.45
2022-12-31T02:38:31.270Z,7.46
2022-12-31T02:40:58.007Z,7.48
2022-12-31T02:43:25.312Z,7.45
2022-12-31T02:46:20.906Z,7.46
2022-12-31T02:49:08.663Z,7.43
2022-12-31T02:51:59.141Z,7.40
2022-12-31T02:54:40.501Z,7.44
2022-12-31T02:57:21.449Z,7.44
2022-12-31T03:00:14.235Z,7.48
2022-12-31T03:02:43.465Z,7.52
2022-12-31T03:05:12.664Z,7.44
2022-12-31T03:07:40.609Z,7.41
2022-12-31T03:10:07.821Z,7.40
2022-12-31T03:12:47.993Z,7.37
2022-12-31T03:15:23.709Z,7.35
2022-12-31T03:18:14.621Z,7.38
2022-12-31T03:21:09.394Z,7.38
2022-12-31T03:23:43.751Z,7.42
2022-12-31T03:26:12.313Z,7.46
2022-12-31T03:28:41.096Z,7.50
2022-12-31T03:31:08.299Z,7.49
2022-12-31T03:33:40.550Z,7.53
2022-12-31T03:36:14.608Z,7.50
2022-12-31T03:38:41.710Z,7.46
2022-12-31T03:41:10.745Z,7.43
2022-12-31T03:43:37.154Z,7.46
2022-12-31T03:46:03.586Z,7.41
2022-12-31T03:48:30.410Z,7.40
2022-12-31T03:50:56.773Z,7.33
2022-12-31T03:53:23.247Z,7.29
2022-12-31T03:55:53.547Z,7.28
2022-12-31T03:58:20.726Z,7.30
2022-12-31T04:00:47.179Z,7.32
2022-12-31T04:03:13.610Z,7.30
2022-12-31T04:05:41.110Z,7.31
2022-12-31T04:08:07.574Z,7.30
2022-12-31T04:10:33.953Z,7.30
2022-12-31T04:13:02.366Z,7.32
2022-12-31T04:15:28.855Z,7.35
2022-12-31T04:17:55.352Z,7.31
2022-12-31T04:20:21.737Z,7.29
2022-12-31T04:22:48.113Z,7.29
2022-12-31T04:25:14.565Z,7.32
2022-12-31T04:27:43.424Z,7.32
2022-12-31T04:30:11.739Z,7.29
2022-12-31T04:32:38.171Z,7.32
2022-12-31T04:35:05.152Z,7.39
2022-12-31T04:37:31.548Z,7.39
2022-12-31T04:40:03.681Z,7.35
2022-12-31T04:42:32.192Z,7.30
2022-12-31T04:44:58.613Z,7.30
2022-12-31T04:47:25.036Z,7.31
2022-12-31T04:49:51.494Z,7.28
2022-12-31T04:52:17.942Z,7.32
2022-12-31T04:54:44.332Z,7.34
2022-12-31T04:57:10.771Z,7.38
2022-12-31T04:59:37.277Z,7.40
2022-12-31T05:02:03.952Z,7.40
2022-12-31T05:04:30.569Z,7.41
2022-12-31T05:06:57.016Z,7.42
2022-12-31T05:09:24.185Z,7.44
2022-12-31T05:11:51.045Z,7.40
2022-12-31T05:14:17.590Z,7.40
2022-12-31T05:16:44.068Z,7.40
2022-12-31T05:19:10.606Z,7.37
2022-12-31T05:21:37.089Z,7.37
2022-12-31T05:24:03.688Z,7.32
2022-12-31T05:26:30.228Z,7.33
2022-12-31T05:28:56.738Z,7.31
2022-12-31T05:31:23.155Z,7.33
2022-12-31T05:33:49.668Z,7.36
2022-12-31T05:36:16.071Z,7.37
2022-12-31T05:38:42.462Z,7.35
2022-12-31T05:41:09.000Z,7.33
2022-12-31T05:43:35.533Z,7.30
2022-12-31T05:46:03.767Z,7.35
2022-12-31T05:48:31.312Z,7.36
2022-12-31T05:50:57.912Z,7.35
2022-12-31T05:53:24.340Z,7.31
2022-12-31T05:55:50.950Z,7.29
2022-12-31T05:58:17.375Z,7.23
2022-12-31T06:00:43.872Z,7.17
2022-12-31T06:03:10.879Z,7.15
2022-12-31T06:05:43.800Z,7.19
2022-12-31T06:08:12.011Z,7.23
2022-12-31T06:10:38.844Z,7.20
2022-12-31T06:13:07.288Z,7.15
2022-12-31T06:15:37.609Z,7.11
2022-12-31T06:18:04.192Z,7.10
2022-12-31T06:20:30.585Z,7.07
2022-12-31T06:22:57.017Z,7.05
2022-12-31T06:25:23.416Z,7.06
2022-12-31T06:27:49.863Z,7.04
2022-12-31T06:30:16.274Z,7.02
2022-12-31T06:32:42.763Z,7.03
2022-12-31T06:35:09.437Z,7.03
2022-12-31T06:37:35.868Z,7.01
2022-12-31T06:40:02.310Z,6.98
2022-12-31T06:42:30.831Z,6.96
2022-12-31T06:44:58.489Z,7.00
2022-12-31T06:47:25.092Z,7.00
2022-12-31T06:49:52.179Z,6.95
2022-12-31T06:52:18.833Z,6.94
2022-12-31T06:54:45.572Z,6.99
2022-12-31T06:57:20.869Z,7.00
2022-12-31T06:59:47.625Z,7.02
2022-12-31T07:02:14.133Z,7.00
2022-12-31T07:04:58.082Z,7.03
2022-12-31T07:07:33.127Z,7.04
2022-12-31T07:10:29.927Z,7.03
2022-12-31T07:13:20.444Z,6.96
2022-12-31T07:16:06.164Z,6.94
2022-12-31T07:18:56.407Z,6.98
2022-12-31T07:21:33.266Z,6.89
2022-12-31T07:24:00.136Z,6.97
2022-12-31T07:26:56.528Z,7.02
2022-12-31T07:29:47.826Z,7.02
2022-12-31T07:32:42.336Z,7.06
2022-12-31T07:35:16.170Z,7.06
2022-12-31T07:38:19.750Z,7.06
2022-12-31T07:41:10.073Z,7.07
2022-12-31T07:43:42.578Z,7.07
2022-12-31T07:46:41.027Z,7.07
2022-12-31T07:49:14.218Z,7.10
2022-12-31T07:51:41.666Z,7.15
2022-12-31T07:54:13.596Z,7.18
2022-12-31T07:56:41.282Z,7.17
2022-12-31T07:59:22.458Z,7.10
2022-12-31T08:01:52.259Z,7.13
2022-12-31T08:04:46.204Z,7.18
2022-12-31T08:07:24.849Z,7.14
2022-12-31T08:09:54.065Z,7.23
2022-12-31T08:12:21.492Z,7.23
2022-12-31T08:14:48.428Z,7.27
2022-12-31T08:17:17.239Z,7.33
2022-12-31T08:19:45.728Z,7.36
2022-12-31T08:23:03.136Z,7.39
2022-12-31T08:25:32.635Z,7.39
2022-12-31T08:28:04.771Z,7.40
2022-12-31T08:30:58.268Z,7.42
2022-12-31T08:33:30.710Z,7.46
2022-12-31T08:36:09.837Z,7.48
2022-12-31T08:38:40.987Z,7.48
2022-12-31T08:41:27.161Z,7.48
2022-12-31T08:44:15.295Z,7.51
2022-12-31T08:47:00.646Z,7.50
2022-12-31T08:49:29.169Z,7.50
2022-12-31T08:51:56.070Z,7.49
2022-12-31T08:54:22.825Z,7.52
2022-12-31T08:56:57.823Z,7.54
2022-12-31T09:00:09.554Z,7.47
2022-12-31T09:03:13.299Z,7.45
2022-12-31T09:06:18.169Z,7.48
2022-12-31T09:09:03.111Z,7.49
2022-12-31T09:11:47.959Z,7.57
2022-12-31T09:14:54.459Z,7.64
2022-12-31T09:17:31.898Z,7.63
2022-12-31T09:19:58.682Z,7.66
2022-12-31T09:22:25.469Z,7.67
2022-12-31T09:24:52.108Z,7.73
2022-12-31T09:27:35.949Z,7.72
2022-12-31T09:30:07.713Z,7.75
2022-12-31T09:32:42.740Z,7.75
2022-12-31T09:35:36.568Z,7.80
2022-12-31T09:38:14.115Z,7.78
2022-12-31T09:41:17.288Z,7.78
2022-12-31T09:44:14.730Z,7.73
2022-12-31T09:46:53.319Z,7.71
2022-12-31T09:49:34.888Z,7.77
2022-12-31T09:52:19.951Z,7.79
2022-12-31T09:54:59.697Z,7.78
2022-12-31T09:57:32.166Z,7.79
2022-12-31T10:00:04.755Z,7.87
2022-12-31T10:03:00.661Z,7.92
2022-12-31T10:05:49.650Z,8.00
2022-12-31T10:08:34.061Z,8.02
2022-12-31T10:11:32.674Z,7.96
2022-12-31T10:14:22.422Z,8.01
2022-12-31T10:17:12.920Z,8.05
2022-12-31T10:20:00.702Z,8.08
2022-12-31T10:23:02.535Z,8.11
2022-12-31T10:25:37.798Z,8.11
2022-12-31T10:28:14.803Z,8.10
2022-12-31T10:30:54.205Z,8.11
2022-12-31T10:33:31.179Z,8.10
2022-12-31T10:36:09.429Z,8.10
2022-12-31T10:39:20.495Z,8.10
2022-12-31T10:42:23.317Z,8.09
2022-12-31T10:45:30.460Z,8.07
2022-12-31T10:48:45.379Z,8.07
2022-12-31T10:51:24.670Z,8.12
2022-12-31T10:54:09.318Z,8.14
2022-12-31T10:57:07.457Z,8.13
2022-12-31T10:59:46.248Z,8.17
2022-12-31T11:02:30.567Z,8.20
2022-12-31T11:05:34.711Z,8.25
2022-12-31T11:08:43.792Z,8.24
2022-12-31T11:11:43.675Z,8.26
2022-12-31T11:14:55.470Z,8.24
2022-12-31T11:17:38.755Z,8.26
2022-12-31T11:20:31.799Z,8.25
2022-12-31T11:23:01.558Z,8.25
2022-12-31T11:25:47.783Z,8.33
2022-12-31T11:28:25.265Z,8.37
2022-12-31T11:30:55.822Z,8.42
2022-12-31T11:33:59.301Z,8.41
2022-12-31T11:36:57.531Z,8.41
2022-12-31T11:39:36.266Z,8.47
2022-12-31T11:42:25.126Z,8.45
2022-12-31T11:45:12.690Z,8.48
2022-12-31T11:48:29.528Z,8.48
2022-12-31T11:51:28.027Z,8.49
2022-12-31T11:54:42.979Z,8.45
2022-12-31T11:57:30.382Z,8.40
2022-12-31T12:00:03.881Z,8.42
2022-12-31T12:02:35.648Z,8.43
2022-12-31T12:05:10.637Z,8.49
2022-12-31T12:07:38.307Z,8.53
2022-12-31T12:10:23.044Z,8.56
2022-12-31T12:12:51.950Z,8.62
2022-12-31T12:15:39.291Z,8.61
2022-12-31T12:18:26.665Z,8.54
2022-12-31T12:21:03.003Z,8.55
2022-12-31T12:23:29.478Z,8.58
2022-12-31T12:25:55.884Z,8.62
2022-12-31T12:28:25.305Z,8.65
2022-12-31T12:31:01.471Z,8.70
2022-12-31T12:33:30.330Z,8.68
2022-12-31T12:36:10.875Z,8.69
2022-12-31T12:38:37.604Z,8.73
2022-12-31T12:41:06.848Z,8.74
2022-12-31T12:43:35.911Z,8.78
2022-12-31T12:46:06.589Z,8.83
2022-12-31T12:48:43.184Z,8.86
2022-12-31T12:51:52.373Z,8.90
2022-12-31T12:54:37.598Z,8.93
2022-12-31T12:57:16.193Z,8.94
2022-12-31T13:00:04.376Z,8.95
2022-12-31T13:02:49.541Z,8.93
2022-12-31T13:05:48.507Z,8.98
2022-12-31T13:08:34.197Z,8.97
2022-12-31T13:11:15.728Z,8.99
2022-12-31T13:13:48.069Z,9.00
2022-12-31T13:16:33.295Z,9.00
2022-12-31T13:19:05.794Z,9.03
2022-12-31T13:22:14.514Z,9.02
2022-12-31T13:24:43.703Z,9.04
2022-12-31T13:27:24.821Z,9.02
2022-12-31T13:29:53.414Z,9.03
2022-12-31T13:32:29.542Z,9.04
2022-12-31T13:35:03.484Z,9.08
2022-12-31T13:37:42.130Z,9.07
2022-12-31T13:40:23.764Z,9.06
2022-12-31T13:42:58.197Z,9.07
2022-12-31T13:45:30.590Z,9.05
2022-12-31T13:48:05.613Z,9.01
2022-12-31T13:50:38.985Z,9.00
2022-12-31T13:53:25.867Z,8.97
2022-12-31T13:55:59.042Z,8.97
2022-12-31T13:58:40.913Z,8.99
2022-12-31T14:01:19.171Z,9.02
2022-12-31T14:04:23.286Z,9.00
2022-12-31T14:07:13.966Z,8.99
2022-12-31T14:09:40.501Z,8.96
2022-12-31T14:12:32.429Z,8.89
2022-12-31T14:15:07.721Z,8.88
2022-12-31T14:17:46.823Z,8.90
2022-12-31T14:20:19.638Z,8.95
2022-12-31T14:22:55.278Z,8.98
2022-12-31T14:25:34.994Z,8.95
2022-12-31T14:28:05.808Z,8.92
2022-12-31T14:30:40.249Z,8.87
2022-12-31T14:33:17.331Z,8.87
2022-12-31T14:35:59.011Z,8.88
2022-12-31T14:38:56.379Z,8.92
2022-12-31T14:41:44.572Z,8.92
2022-12-31T14:44:40.188Z,8.88
2022-12-31T14:47:12.811Z,8.90
2022-12-31T14:50:21.178Z,8.86
2022-12-31T14:52:49.140Z,8.84
2022-12-31T14:55:15.579Z,8.84
2022-12-31T14:58:25.876Z,8.84
2022-12-31T15:00:34.721Z,8.82
2022-12-31T15:03:07.118Z,8.81
2022-12-31T15:05:36.673Z,8.79
2022-12-31T15:08:19.378Z,8.77
2022-12-31T15:10:49.954Z,8.73
2022-12-31T15:13:25.303Z,8.68
2022-12-31T15:16:02.627Z,8.72
2022-12-31T15:18:57.730Z,8.74
2022-12-31T15:21:47.411Z,8.68
2022-12-31T15:24:21.124Z,8.68
2022-12-31T15:26:51.030Z,8.74
2022-12-31T15:29:28.120Z,8.72
2022-12-31T15:31:57.439Z,8.72
2022-12-31T15:34:32.932Z,8.74
2022-12-31T15:37:05.068Z,8.66
2022-12-31T15:39:31.463Z,8.67
2022-12-31T15:44:56.741Z,8.70
2022-12-31T15:47:37.402Z,8.69
2022-12-31T15:50:07.906Z,8.65
2022-12-31T15:52:49.887Z,8.64
2022-12-31T15:55:44.010Z,8.63
2022-12-31T15:58:21.193Z,8.62
2022-12-31T16:01:22.908Z,8.64
2022-12-31T16:03:57.731Z,8.67
2022-12-31T16:06:27.483Z,8.65
2022-12-31T16:08:55.472Z,8.59
2022-12-31T16:11:23.038Z,8.55
2022-12-31T16:13:53.231Z,8.89
2022-12-31T16:16:23.812Z,9.31
2022-12-31T16:18:50.738Z,9.32
2022-12-31T16:21:35.860Z,9.60
2022-12-31T16:24:23.079Z,9.79
2022-12-31T16:26:52.916Z,9.89
2022-12-31T16:29:21.636Z,9.93
2022-12-31T16:31:50.065Z,10.15
2022-12-31T16:34:21.884Z,10.12
2022-12-31T16:37:05.384Z,9.81
2022-12-31T16:39:34.148Z,9.86
2022-12-31T16:42:23.299Z,9.88
2022-12-31T16:44:51.406Z,9.73
2022-12-31T16:47:35.050Z,9.94
2022-12-31T16:50:15.528Z,10.07
2022-12-31T16:52:44.716Z,9.68
2022-12-31T16:55:24.639Z,9.38
2022-12-31T16:57:55.617Z,9.35
2022-12-31T17:00:24.662Z,9.62
2022-12-31T17:03:15.869Z,9.73
2022-12-31T17:06:05.632Z,9.33
2022-12-31T17:08:54.666Z,9.06
2022-12-31T17:11:28.587Z,8.88
2022-12-31T17:14:16.740Z,8.80
2022-12-31T17:17:04.174Z,8.70
2022-12-31T17:19:38.391Z,8.58
2022-12-31T17:22:10.389Z,8.57
2022-12-31T17:24:38.433Z,8.59
2022-12-31T17:27:07.286Z,8.63
2022-12-31T17:29:34.450Z,8.61
2022-12-31T17:32:05.416Z,8.63
2022-12-31T17:34:51.034Z,8.59
2022-12-31T17:37:26.765Z,8.56
2022-12-31T17:39:56.468Z,8.58
2022-12-31T17:42:36.796Z,8.58
2022-12-31T17:45:12.089Z,8.57
2022-12-31T17:47:41.276Z,8.56
2022-12-31T17:50:20.426Z,8.54
2022-12-31T17:52:47.472Z,8.48
2022-12-31T17:55:14.631Z,8.46
2022-12-31T17:57:50.229Z,8.47
2022-12-31T18:00:19.738Z,8.48
2022-12-31T18:02:46.307Z,8.47
2022-12-31T18:05:21.784Z,8.44
2022-12-31T18:07:48.704Z,8.46
2022-12-31T18:10:16.875Z,8.46
2022-12-31T18:12:45.131Z,8.35
2022-12-31T18:15:17.010Z,8.34
2022-12-31T18:17:43.835Z,8.38
2022-12-31T18:20:10.792Z,8.42
2022-12-31T18:22:38.521Z,8.37
2022-12-31T18:25:07.254Z,8.34
2022-12-31T18:27:34.747Z,8.36
2022-12-31T18:30:04.808Z,8.41
2022-12-31T18:32:33.336Z,8.44
2022-12-31T18:34:59.731Z,8.46
2022-12-31T18:37:29.469Z,8.45
2022-12-31T18:39:55.894Z,8.47
2022-12-31T18:42:25.436Z,8.43
2022-12-31T18:44:52.062Z,8.43
2022-12-31T18:47:20.151Z,8.45
2022-12-31T18:49:48.449Z,8.41
2022-12-31T18:52:20.704Z,8.36
2022-12-31T18:54:47.550Z,8.38
2022-12-31T18:57:15.650Z,8.34
2022-12-31T18:59:42.307Z,8.26
2022-12-31T19:02:18.898Z,8.24
2022-12-31T19:04:45.740Z,8.23
2022-12-31T19:07:12.708Z,8.27
2022-12-31T19:09:50.067Z,8.27
2022-12-31T19:12:19.594Z,8.21
2022-12-31T19:14:46.099Z,8.22
2022-12-31T19:17:12.554Z,8.25
2022-12-31T19:19:38.982Z,8.26
2022-12-31T19:22:05.505Z,8.22
2022-12-31T19:24:32.014Z,8.23
2022-12-31T19:27:01.032Z,8.16
2022-12-31T19:29:28.345Z,8.12
2022-12-31T19:31:55.004Z,8.13
2022-12-31T19:34:21.588Z,8.02
2022-12-31T19:36:48.114Z,8.01
2022-12-31T19:39:18.100Z,8.07
2022-12-31T19:41:45.664Z,8.06
2022-12-31T19:44:20.813Z,8.06
2022-12-31T19:46:49.085Z,8.08
2022-12-31T19:49:15.537Z,8.08
2022-12-31T19:51:42.608Z,8.02
2022-12-31T19:54:11.932Z,8.07
2022-12-31T19:56:38.388Z,8.10
2022-12-31T19:59:06.328Z,8.11
2022-12-31T20:01:33.175Z,8.15
2022-12-31T20:03:59.747Z,8.10
2022-12-31T20:06:26.255Z,8.12
2022-12-31T20:08:52.781Z,8.11
2022-12-31T20:11:21.677Z,8.10
2022-12-31T20:13:49.452Z,8.08
2022-12-31T20:16:17.680Z,8.11
2022-12-31T20:18:46.191Z,8.11
2022-12-31T20:21:21.049Z,8.09
2022-12-31T20:23:52.051Z,8.11
2022-12-31T20:26:20.237Z,8.11
2022-12-31T20:28:47.000Z,8.10
2022-12-31T20:31:16.935Z,8.12
2022-12-31T20:33:44.692Z,8.12
2022-12-31T20:36:13.675Z,8.08
2022-12-31T20:38:40.535Z,8.07
2022-12-31T20:41:27.292Z,8.10
2022-12-31T20:43:53.813Z,8.14
2022-12-31T20:46:23.131Z,8.13
2022-12-31T20:48:52.083Z,8.10
2022-12-31T20:51:19.957Z,8.03
2022-12-31T20:53:48.664Z,8.04
2022-12-31T20:56:16.294Z,8.05
2022-12-31T20:58:42.882Z,8.09
2022-12-31T21:01:10.612Z,8.13
2022-12-31T21:04:04.871Z,8.16
2022-12-31T21:06:25.669Z,8.14
2022-12-31T21:08:52.560Z,8.14
2022-12-31T21:11:37.623Z,8.11
2022-12-31T21:14:04.193Z,8.09
2022-12-31T21:16:30.651Z,8.08
2022-12-31T21:18:57.076Z,8.11
2022-12-31T21:21:24.045Z,8.11
2022-12-31T21:23:50.718Z,8.10
2022-12-31T21:26:17.432Z,8.12
2022-12-31T21:28:43.984Z,8.10
2022-12-31T21:31:12.967Z,8.11
2022-12-31T21:33:39.630Z,8.08
2022-12-31T21:36:06.251Z,8.10
2022-12-31T21:38:36.288Z,8.15
2022-12-31T21:41:05.136Z,8.14
2022-12-31T21:43:31.624Z,8.14
2022-12-31T21:46:06.112Z,8.15
2022-12-31T21:48:33.599Z,8.12
2022-12-31T21:51:09.289Z,8.12
2022-12-31T21:53:37.241Z,8.11
2022-12-31T21:56:15.915Z,8.12
2022-12-31T22:02:16.820Z,8.01
2022-12-31T22:05:01.788Z,8.05
2022-12-31T22:07:29.001Z,7.99
2022-12-31T22:09:55.547Z,7.96
2022-12-31T22:12:22.008Z,8.00
2022-12-31T22:15:14.299Z,8.04
2022-12-31T22:17:34.955Z,8.03
2022-12-31T22:20:25.773Z,8.02
2022-12-31T22:22:48.578Z,8.00
2022-12-31T22:25:16.151Z,8.05
2022-12-31T22:27:48.693Z,8.07
2022-12-31T22:30:24.743Z,8.10
2022-12-31T22:32:51.131Z,8.06
2022-12-31T22:35:17.571Z,8.08
2022-12-31T22:37:56.871Z,8.10
2022-12-31T22:40:24.448Z,8.03
2022-12-31T22:42:50.873Z,8.03
2022-12-31T22:45:17.286Z,8.06
2022-12-31T22:47:43.668Z,8.09
2022-12-31T22:50:10.081Z,8.08
2022-12-31T22:52:36.503Z,8.12
2022-12-31T22:55:03.092Z,8.11
2022-12-31T22:57:29.481Z,8.11
2022-12-31T22:59:55.849Z,8.12
2022-12-31T23:02:22.322Z,8.14
2022-12-31T23:04:48.781Z,8.12
2022-12-31T23:07:15.247Z,8.12
2022-12-31T23:10:00.125Z,8.10
2022-12-31T23:12:26.670Z,8.07
2022-12-31T23:15:11.790Z,8.08
2022-12-31T23:17:56.665Z,8.07
2022-12-31T23:20:42.933Z,8.06
2022-12-31T23:23:15.354Z,8.05
2022-12-31T23:25:47.501Z,8.06
2022-12-31T23:28:17.805Z,8.03
2022-12-31T23:30:44.433Z,8.05
2022-12-31T23:33:19.741Z,8.04
2022-12-31T23:35:46.566Z,8.03
2022-12-31T23:38:13.672Z,8.07
2022-12-31T23:40:40.147Z,8.07
2022-12-31T23:43:08.160Z,8.08
2022-12-31T23:45:35.159Z,8.08
2022-12-31T23:48:02.093Z,8.10
2022-12-31T23:50:28.805Z,8.14
2022-12-31T23:52:55.261Z,8.11
2022-12-31T23:55:21.878Z,8.11
2022-12-31T23:57:48.288Z,8.11
